createdAt,value
2018-12-06T00:00:09.497Z,8.57
2018-12-06T00:02:37.652Z,9.13
2018-12-06T00:05:06.125Z,9.50
2018-12-06T00:07:34.278Z,9.30
2018-12-06T00:10:03.117Z,10.10
2018-12-06T00:12:31.298Z,9.83
2018-12-06T00:15:10.967Z,10.27
2018-12-06T00:17:39.089Z,9.07
2018-12-06T00:20:07.348Z,9.70
2018-12-06T00:22:35.845Z,8.60
2018-12-06T00:25:04.097Z,9.10
2018-12-06T00:27:32.250Z,9.57
2018-12-06T00:30:11.778Z,8.67
2018-12-06T00:32:40.001Z,8.70
2018-12-06T00:35:08.165Z,8.57
2018-12-06T00:37:36.589Z,9.20
2018-12-06T00:40:04.893Z,10.03
2018-12-06T00:42:32.998Z,8.97
2018-12-06T00:45:04.385Z,9.30
2018-12-06T00:47:32.689Z,8.77
2018-12-06T00:50:00.868Z,9.23
2018-12-06T00:52:29.042Z,9.17
2018-12-06T00:54:57.137Z,10.40
2018-12-06T00:57:25.301Z,9.03
2018-12-06T00:59:53.761Z,8.70
2018-12-06T01:02:21.910Z,9.13
2018-12-06T01:04:50.053Z,9.07
2018-12-06T01:07:19.085Z,8.83
2018-12-06T01:09:47.217Z,9.63
2018-12-06T01:12:15.341Z,10.20
2018-12-06T01:14:43.839Z,8.57
2018-12-06T01:17:12.115Z,8.77
2018-12-06T01:19:40.274Z,7.97
2018-12-06T01:22:08.513Z,8.90
2018-12-06T01:24:36.601Z,8.37
2018-12-06T01:27:04.867Z,8.73
2018-12-06T01:29:33.392Z,8.97
2018-12-06T01:32:01.581Z,8.20
2018-12-06T01:34:29.693Z,7.70
2018-12-06T01:36:57.925Z,7.93
2018-12-06T01:39:26.013Z,7.73
2018-12-06T01:41:54.088Z,7.77
2018-12-06T01:44:53.285Z,6.53
2018-12-06T01:47:21.408Z,7.17
2018-12-06T01:49:49.484Z,7.03
2018-12-06T01:52:17.985Z,6.93
2018-12-06T01:54:46.062Z,6.60
2018-12-06T01:57:14.499Z,7.93
2018-12-06T01:59:42.749Z,7.13
2018-12-06T02:02:10.846Z,7.83
2018-12-06T02:04:38.921Z,6.97
2018-12-06T02:07:07.121Z,7.67
2018-12-06T02:09:35.269Z,7.67
2018-12-06T02:12:03.451Z,8.03
2018-12-06T02:14:31.960Z,7.13
2018-12-06T02:17:00.142Z,8.47
2018-12-06T02:19:28.229Z,8.73
2018-12-06T02:21:56.397Z,8.83
2018-12-06T02:24:24.554Z,7.40
2018-12-06T02:26:52.749Z,8.40
2018-12-06T02:29:21.117Z,8.33
2018-12-06T02:31:49.295Z,7.60
2018-12-06T02:34:17.402Z,8.60
2018-12-06T02:36:45.602Z,8.40
2018-12-06T02:39:13.757Z,8.30
2018-12-06T02:41:41.882Z,7.80
2018-12-06T02:44:10.595Z,8.47
2018-12-06T02:46:38.709Z,8.53
2018-12-06T02:49:06.877Z,9.47
2018-12-06T02:51:34.978Z,9.47
2018-12-06T02:54:03.067Z,8.97
2018-12-06T02:56:31.174Z,9.83
2018-12-06T02:58:59.716Z,9.80
2018-12-06T03:01:27.952Z,10.87
2018-12-06T03:03:56.054Z,11.03
2018-12-06T03:06:24.251Z,10.13
2018-12-06T03:08:52.404Z,10.40
2018-12-06T03:11:20.588Z,10.97
2018-12-06T03:13:48.864Z,10.67
2018-12-06T03:16:17.130Z,12.77
2018-12-06T03:18:45.477Z,12.47
2018-12-06T03:21:13.716Z,11.40
2018-12-06T03:23:41.813Z,12.07
2018-12-06T03:26:10.011Z,11.97
2018-12-06T03:28:38.498Z,12.87
2018-12-06T03:31:06.675Z,13.23
2018-12-06T03:33:34.884Z,13.97
2018-12-06T03:36:03.217Z,14.77
2018-12-06T03:38:31.382Z,15.33
2018-12-06T03:40:59.666Z,16.17
2018-12-06T03:43:27.850Z,16.07
2018-12-06T03:45:56.024Z,16.87
2018-12-06T03:48:24.190Z,16.23
2018-12-06T03:50:52.355Z,14.80
2018-12-06T03:53:20.546Z,16.23
2018-12-06T03:55:48.688Z,16.57
2018-12-06T03:58:17.209Z,15.90
2018-12-06T04:00:45.365Z,17.83
2018-12-06T04:03:13.485Z,16.07
2018-12-06T04:05:41.727Z,17.37
2018-12-06T04:08:10.097Z,16.60
2018-12-06T04:10:38.189Z,17.57
2018-12-06T04:13:06.767Z,18.77
2018-12-06T04:15:35.068Z,18.30
2018-12-06T04:18:03.234Z,19.13
2018-12-06T04:20:31.345Z,16.33
2018-12-06T04:22:59.488Z,16.80
2018-12-06T04:25:27.720Z,17.80
2018-12-06T04:27:56.109Z,17.47
2018-12-06T04:30:24.360Z,19.17
2018-12-06T04:32:52.544Z,18.27
2018-12-06T04:35:20.726Z,18.50
2018-12-06T04:37:48.885Z,19.53
2018-12-06T04:40:17.053Z,19.07
2018-12-06T04:42:45.470Z,19.97
2018-12-06T04:45:13.616Z,19.20
2018-12-06T04:47:42.091Z,20.33
2018-12-06T04:50:10.411Z,20.27
2018-12-06T04:52:38.617Z,18.50
2018-12-06T04:55:06.942Z,18.43
2018-12-06T04:57:35.438Z,18.63
2018-12-06T05:00:03.886Z,19.73
2018-12-06T05:02:32.050Z,19.97
2018-12-06T05:05:00.299Z,20.10
2018-12-06T05:07:28.471Z,19.40
2018-12-06T05:09:56.554Z,19.70
2018-12-06T05:12:24.996Z,20.03
2018-12-06T05:14:53.229Z,22.30
2018-12-06T05:17:21.458Z,21.00
2018-12-06T05:19:49.572Z,20.07
2018-12-06T05:22:17.827Z,21.70
2018-12-06T05:24:45.942Z,21.03
2018-12-06T05:27:14.061Z,20.83
2018-12-06T05:29:42.169Z,21.93
2018-12-06T05:32:10.355Z,20.77
2018-12-06T05:34:38.459Z,21.60
2018-12-06T05:37:06.556Z,21.30
2018-12-06T05:39:34.665Z,21.33
2018-12-06T05:42:03.193Z,21.87
2018-12-06T05:44:31.299Z,22.20
2018-12-06T05:46:59.513Z,21.17
2018-12-06T05:49:28.017Z,21.80
2018-12-06T05:51:56.188Z,21.87
2018-12-06T05:54:24.396Z,22.37
2018-12-06T05:56:52.538Z,22.50
2018-12-06T05:59:20.746Z,22.33
2018-12-06T06:01:48.848Z,21.87
2018-12-06T06:04:17.373Z,22.63
2018-12-06T06:06:45.538Z,22.90
2018-12-06T06:09:13.656Z,23.20
2018-12-06T06:11:41.836Z,21.40
2018-12-06T06:14:10.002Z,23.97
2018-12-06T06:16:38.101Z,22.63
2018-12-06T06:19:06.296Z,22.57
2018-12-06T06:21:34.533Z,22.27
2018-12-06T06:24:02.773Z,22.77
2018-12-06T06:26:31.235Z,22.10
2018-12-06T06:28:59.397Z,22.40
2018-12-06T06:31:27.593Z,22.43
2018-12-06T06:33:55.918Z,23.57
2018-12-06T06:36:24.018Z,21.70
2018-12-06T06:38:52.100Z,22.43
2018-12-06T06:41:20.278Z,21.50
2018-12-06T06:43:48.365Z,21.60
2018-12-06T06:46:16.471Z,23.17
2018-12-06T06:48:44.578Z,22.33
2018-12-06T06:51:12.748Z,23.13
2018-12-06T06:53:40.926Z,21.67
2018-12-06T06:56:09.333Z,22.73
2018-12-06T06:58:37.417Z,21.83
2018-12-06T07:01:05.596Z,22.57
2018-12-06T07:03:34.261Z,22.40
2018-12-06T07:06:02.353Z,21.30
2018-12-06T07:08:30.443Z,22.57
2018-12-06T07:10:58.629Z,22.73
2018-12-06T07:13:26.798Z,22.40
2018-12-06T07:15:54.990Z,22.80
2018-12-06T07:18:23.513Z,22.30
2018-12-06T07:20:51.853Z,22.70
2018-12-06T07:23:20.100Z,21.60
2018-12-06T07:25:48.647Z,23.00
2018-12-06T07:28:16.739Z,22.70
2018-12-06T07:30:44.893Z,21.73
2018-12-06T07:33:13.048Z,22.17
2018-12-06T07:35:41.315Z,22.30
2018-12-06T07:38:09.409Z,22.17
2018-12-06T07:40:37.589Z,22.63
2018-12-06T07:43:05.841Z,23.03
2018-12-06T07:45:33.936Z,23.30
2018-12-06T07:48:02.441Z,21.77
2018-12-06T07:50:30.541Z,21.17
2018-12-06T07:52:58.681Z,21.37
2018-12-06T07:55:27.061Z,22.27
2018-12-06T07:57:55.219Z,20.67
2018-12-06T08:00:23.305Z,21.03
2018-12-06T08:02:51.549Z,20.20
2018-12-06T08:05:19.749Z,21.07
2018-12-06T08:07:47.925Z,21.37
2018-12-06T08:10:16.477Z,21.87
2018-12-06T08:12:44.694Z,21.63
2018-12-06T08:15:13.032Z,20.97
2018-12-06T08:17:41.124Z,21.10
2018-12-06T08:20:09.297Z,19.57
2018-12-06T08:22:37.385Z,21.27
2018-12-06T08:25:05.847Z,21.33
2018-12-06T08:27:34.053Z,19.07
2018-12-06T08:30:02.306Z,19.07
2018-12-06T08:32:30.882Z,19.17
2018-12-06T08:34:58.993Z,18.33
2018-12-06T08:37:27.101Z,18.83
2018-12-06T08:39:55.302Z,18.30
2018-12-06T08:42:23.551Z,18.50
2018-12-06T08:44:51.674Z,16.93
2018-12-06T08:47:20.338Z,17.23
2018-12-06T08:49:48.521Z,17.30
2018-12-06T08:52:16.665Z,18.37
2018-12-06T08:54:44.781Z,17.53
2018-12-06T08:57:12.960Z,16.17
2018-12-06T08:59:41.129Z,16.83
2018-12-06T09:02:09.313Z,16.67
2018-12-06T09:04:37.683Z,16.80
2018-12-06T09:07:05.958Z,14.73
2018-12-06T09:09:34.139Z,15.57
2018-12-06T09:12:02.277Z,15.23
2018-12-06T09:14:30.435Z,14.63
2018-12-06T09:16:58.697Z,13.80
2018-12-06T09:19:26.990Z,12.50
2018-12-06T09:21:55.217Z,11.90
2018-12-06T09:24:23.765Z,11.70
2018-12-06T09:26:58.490Z,10.80
2018-12-06T09:29:21.990Z,10.47
2018-12-06T09:31:50.531Z,11.13
2018-12-06T09:34:18.619Z,11.37
2018-12-06T09:36:46.771Z,11.17
2018-12-06T09:39:15.151Z,10.23
2018-12-06T09:41:43.235Z,10.33
2018-12-06T09:44:11.400Z,10.40
2018-12-06T09:46:40.007Z,10.47
2018-12-06T09:49:08.234Z,9.57
2018-12-06T09:51:36.490Z,9.17
2018-12-06T09:54:05.040Z,9.20
2018-12-06T09:56:33.270Z,9.20
2018-12-06T09:59:01.367Z,8.87
2018-12-06T10:01:29.661Z,9.13
2018-12-06T10:03:57.777Z,9.13
2018-12-06T10:06:25.970Z,9.03
2018-12-06T10:08:54.384Z,8.33
2018-12-06T10:11:22.629Z,8.27
2018-12-06T10:13:50.803Z,8.07
2018-12-06T10:16:19.074Z,8.10
2018-12-06T10:18:47.204Z,7.87
2018-12-06T10:21:15.325Z,8.00
2018-12-06T10:23:43.836Z,7.53
2018-12-06T10:26:12.073Z,7.10
2018-12-06T10:28:41.753Z,7.27
2018-12-06T10:31:10.154Z,6.97
2018-12-06T10:33:38.405Z,7.57
2018-12-06T10:36:06.690Z,7.17
2018-12-06T10:38:34.809Z,7.80
2018-12-06T10:41:03.463Z,7.87
2018-12-06T10:43:31.742Z,7.30
2018-12-06T10:46:00.099Z,7.43
2018-12-06T10:48:28.582Z,8.43
2018-12-06T10:51:08.752Z,8.43
2018-12-06T10:53:37.341Z,7.77
2018-12-06T10:56:05.607Z,7.40
2018-12-06T10:58:33.985Z,6.47
2018-12-06T11:01:09.194Z,7.43
2018-12-06T11:03:43.017Z,7.27
2018-12-06T11:06:11.297Z,8.03
2018-12-06T11:08:39.560Z,7.50
2018-12-06T11:11:09.137Z,8.37
2018-12-06T11:13:37.478Z,7.23
2018-12-06T11:16:06.082Z,8.67
2018-12-06T11:18:34.343Z,8.63
2018-12-06T11:21:02.592Z,8.40
2018-12-06T11:23:30.933Z,8.93
2018-12-06T11:25:59.435Z,9.00
2018-12-06T11:28:27.601Z,9.80
2018-12-06T11:30:55.869Z,9.10
2018-12-06T11:33:23.949Z,8.33
2018-12-06T11:35:52.118Z,8.33
2018-12-06T11:38:20.305Z,8.83
2018-12-06T11:40:48.522Z,8.07
2018-12-06T11:43:16.685Z,8.80
2018-12-06T11:45:44.877Z,10.23
2018-12-06T11:48:13.045Z,9.60
2018-12-06T11:50:41.309Z,9.47
2018-12-06T11:53:09.585Z,9.77
2018-12-06T11:55:37.795Z,11.00
2018-12-06T11:58:11.414Z,10.07
2018-12-06T12:00:36.089Z,10.00
2018-12-06T12:03:04.301Z,10.97
2018-12-06T12:05:32.402Z,10.07
2018-12-06T12:08:00.616Z,12.17
2018-12-06T12:10:28.823Z,12.13
2018-12-06T12:12:56.917Z,11.30
2018-12-06T12:15:25.070Z,12.03
2018-12-06T12:17:53.278Z,11.23
2018-12-06T12:20:21.467Z,13.20
2018-12-06T12:22:49.717Z,12.53
2018-12-06T12:25:18.041Z,12.47
2018-12-06T12:27:46.241Z,12.87
2018-12-06T12:30:14.511Z,11.80
2018-12-06T12:32:42.761Z,11.80
2018-12-06T12:35:10.991Z,12.17
2018-12-06T12:37:39.122Z,12.17
2018-12-06T12:40:09.809Z,12.13
2018-12-06T12:42:38.054Z,11.80
2018-12-06T12:45:06.805Z,11.53
2018-12-06T12:47:34.988Z,9.97
2018-12-06T12:50:03.341Z,10.90
2018-12-06T12:52:31.446Z,9.40
2018-12-06T12:54:59.546Z,8.73
2018-12-06T12:57:27.670Z,8.77
2018-12-06T12:59:55.850Z,8.50
2018-12-06T13:02:24.349Z,8.60
2018-12-06T13:04:52.599Z,7.33
2018-12-06T13:07:20.761Z,7.33
2018-12-06T13:09:48.881Z,6.73
2018-12-06T13:12:17.089Z,7.13
2018-12-06T13:14:45.177Z,6.23
2018-12-06T13:17:13.277Z,6.43
2018-12-06T13:19:41.457Z,5.83
2018-12-06T13:22:09.630Z,6.60
2018-12-06T13:24:37.883Z,6.20
2018-12-06T13:27:06.041Z,5.43
2018-12-06T13:29:34.292Z,4.80
2018-12-06T13:32:02.378Z,5.97
2018-12-06T13:34:30.536Z,4.87
2018-12-06T13:36:58.701Z,5.60
2018-12-06T13:39:26.880Z,4.87
2018-12-06T13:41:54.969Z,5.37
2018-12-06T13:44:23.189Z,4.93
2018-12-06T13:46:51.445Z,4.87
2018-12-06T13:49:19.537Z,4.83
2018-12-06T13:51:47.641Z,5.50
2018-12-06T13:54:16.109Z,6.00
2018-12-06T13:56:44.280Z,7.03
2018-12-06T13:59:12.381Z,6.50
2018-12-06T14:01:40.838Z,6.37
2018-12-06T14:04:08.935Z,7.13
2018-12-06T14:06:37.110Z,7.20
2018-12-06T14:09:07.004Z,7.60
2018-12-06T14:11:35.515Z,7.17
2018-12-06T14:14:03.762Z,7.63
2018-12-06T14:16:32.180Z,7.10
2018-12-06T14:19:00.421Z,6.70
2018-12-06T14:21:28.533Z,7.17
2018-12-06T14:23:56.646Z,7.37
2018-12-06T14:26:24.997Z,7.87
2018-12-06T14:28:53.117Z,7.37
2018-12-06T14:31:21.294Z,7.70
2018-12-06T14:33:49.448Z,8.30
2018-12-06T14:36:17.604Z,7.87
2018-12-06T14:38:45.772Z,8.07
2018-12-06T14:41:13.998Z,7.67
2018-12-06T14:43:42.089Z,8.17
2018-12-06T14:46:12.884Z,7.63
2018-12-06T14:48:41.194Z,7.97
2018-12-06T14:51:09.289Z,6.70
2018-12-06T14:53:37.712Z,6.97
2018-12-06T14:56:06.125Z,6.97
2018-12-06T14:58:34.221Z,7.20
2018-12-06T15:01:02.489Z,7.77
2018-12-06T15:03:30.746Z,7.37
2018-12-06T15:05:58.908Z,7.93
2018-12-06T15:08:27.148Z,8.80
2018-12-06T15:10:55.249Z,9.87
2018-12-06T15:13:23.525Z,9.87
2018-12-06T15:15:51.633Z,10.03
2018-12-06T15:18:19.808Z,10.80
2018-12-06T15:20:48.074Z,10.93
2018-12-06T15:23:16.275Z,10.57
2018-12-06T15:25:44.386Z,10.03
2018-12-06T15:28:12.637Z,11.50
2018-12-06T15:30:41.145Z,12.23
2018-12-06T15:33:09.310Z,11.57
2018-12-06T15:35:37.524Z,12.40
2018-12-06T15:38:06.185Z,11.17
2018-12-06T15:40:34.286Z,12.27
2018-12-06T15:43:02.469Z,11.73
2018-12-06T15:45:31.134Z,13.40
2018-12-06T15:47:59.296Z,14.60
2018-12-06T15:50:27.479Z,13.30
2018-12-06T15:52:56.038Z,13.67
2018-12-06T15:55:24.324Z,14.77
2018-12-06T15:57:52.501Z,13.57
2018-12-06T16:00:20.861Z,15.30
2018-12-06T16:02:49.059Z,13.70
2018-12-06T16:05:17.241Z,14.23
2018-12-06T16:07:45.428Z,14.97
2018-12-06T16:10:13.705Z,14.40
2018-12-06T16:12:41.805Z,13.73
2018-12-06T16:15:10.087Z,13.47
2018-12-06T16:17:38.253Z,15.63
2018-12-06T16:20:08.989Z,14.30
2018-12-06T16:22:37.113Z,18.47
2018-12-06T16:25:06.337Z,13.77
2018-12-06T16:27:34.524Z,14.43
2018-12-06T16:30:02.790Z,13.47
2018-12-06T16:32:31.084Z,17.42
2018-12-06T16:34:59.341Z,14.70
2018-12-06T16:37:27.457Z,18.42
2018-12-06T16:39:55.708Z,14.83
2018-12-06T16:42:23.870Z,14.60
2018-12-06T16:44:52.206Z,13.30
2018-12-06T16:47:20.429Z,13.40
2018-12-06T16:49:48.839Z,13.00
2018-12-06T16:52:17.087Z,12.77
2018-12-06T16:54:45.197Z,12.70
2018-12-06T16:57:13.517Z,11.87
2018-12-06T16:59:41.963Z,11.90
2018-12-06T17:02:10.110Z,11.30
2018-12-06T17:04:38.249Z,10.70
2018-12-06T17:07:06.357Z,10.53
2018-12-06T17:09:34.513Z,9.87
2018-12-06T17:12:02.748Z,10.73
2018-12-06T17:14:30.934Z,11.73
2018-12-06T17:16:59.161Z,12.63
2018-12-06T17:19:27.402Z,14.13
2018-12-06T17:21:55.634Z,13.93
2018-12-06T17:24:23.742Z,11.00
2018-12-06T17:26:51.893Z,11.67
2018-12-06T17:29:20.384Z,11.93
2018-12-06T17:31:48.525Z,10.97
2018-12-06T17:34:16.713Z,12.43
2018-12-06T17:36:45.289Z,11.17
2018-12-06T17:39:13.397Z,10.60
2018-12-06T17:41:41.505Z,10.20
2018-12-06T17:44:10.017Z,12.10
2018-12-06T17:46:38.194Z,11.20
2018-12-06T17:49:06.292Z,10.57
2018-12-06T17:51:34.960Z,12.47
2018-12-06T17:54:03.130Z,10.50
2018-12-06T17:56:31.294Z,11.30
2018-12-06T17:58:59.498Z,10.17
2018-12-06T18:01:28.393Z,9.90
2018-12-06T18:03:56.621Z,10.80
2018-12-06T18:06:25.138Z,10.90
2018-12-06T18:08:53.309Z,10.07
2018-12-06T18:11:21.402Z,11.47
2018-12-06T18:13:50.057Z,10.03
2018-12-06T18:16:19.743Z,10.80
2018-12-06T18:18:48.301Z,10.23
2018-12-06T18:21:16.857Z,10.10
2018-12-06T18:23:45.028Z,10.40
2018-12-06T18:26:13.235Z,10.20
2018-12-06T18:28:41.390Z,9.93
2018-12-06T18:31:09.549Z,10.60
2018-12-06T18:33:37.677Z,10.03
2018-12-06T18:36:06.331Z,9.13
2018-12-06T18:38:34.530Z,10.27
2018-12-06T18:41:02.707Z,10.00
2018-12-06T18:43:30.844Z,11.33
2018-12-06T18:45:59.014Z,10.20
2018-12-06T18:48:27.205Z,11.07
2018-12-06T18:50:55.373Z,10.20
2018-12-06T18:53:23.456Z,9.77
2018-12-06T18:55:51.741Z,9.57
2018-12-06T18:58:20.193Z,8.77
2018-12-06T19:00:48.322Z,9.90
2018-12-06T19:03:16.467Z,9.30
2018-12-06T19:05:44.985Z,10.00
2018-12-06T19:08:13.143Z,9.93
2018-12-06T19:10:41.293Z,9.47
2018-12-06T19:13:09.665Z,9.80
2018-12-06T19:15:37.806Z,9.77
2018-12-06T19:18:05.888Z,9.33
2018-12-06T19:20:34.297Z,9.67
2018-12-06T19:23:02.557Z,9.33
2018-12-06T19:25:30.642Z,8.93
2018-12-06T19:28:01.721Z,11.75
2018-12-06T19:30:29.844Z,9.27
2018-12-06T19:33:03.065Z,8.53
2018-12-06T19:35:28.002Z,9.47
2018-12-06T19:37:56.313Z,9.73
2018-12-06T19:40:24.477Z,9.50
2018-12-06T19:42:52.696Z,9.67
2018-12-06T19:45:20.949Z,8.80
2018-12-06T19:47:49.105Z,9.20
2018-12-06T19:50:17.254Z,8.60
2018-12-06T19:52:45.413Z,10.00
2018-12-06T19:55:13.561Z,6.83
2018-12-06T19:57:41.960Z,5.90
2018-12-06T20:00:10.245Z,5.03
2018-12-06T20:02:38.337Z,3.43
2018-12-06T20:05:07.359Z,3.97
2018-12-06T20:07:35.589Z,4.10
2018-12-06T20:10:04.443Z,3.47
2018-12-06T20:12:32.945Z,3.50
2018-12-06T20:15:01.104Z,4.33
2018-12-06T20:17:29.277Z,4.70
2018-12-06T20:19:57.438Z,4.93
2018-12-06T20:22:25.537Z,4.77
2018-12-06T20:24:53.612Z,5.30
2018-12-06T20:27:21.769Z,4.47
2018-12-06T20:29:49.817Z,5.07
2018-12-06T20:32:17.969Z,5.43
2018-12-06T20:34:46.513Z,5.23
2018-12-06T20:37:14.653Z,5.80
2018-12-06T20:39:42.872Z,5.33
2018-12-06T20:42:11.411Z,5.57
2018-12-06T20:44:39.617Z,5.80
2018-12-06T20:47:09.861Z,6.30
2018-12-06T20:49:38.333Z,6.43
2018-12-06T20:52:06.409Z,7.23
2018-12-06T20:54:34.551Z,6.30
2018-12-06T20:57:03.052Z,6.80
2018-12-06T20:59:31.216Z,7.40
2018-12-06T21:01:59.457Z,8.43
2018-12-06T21:04:27.629Z,7.93
2018-12-06T21:06:55.814Z,7.47
2018-12-06T21:09:23.985Z,6.80
2018-12-06T21:11:52.401Z,6.13
2018-12-06T21:14:22.173Z,7.67
2018-12-06T21:16:50.497Z,7.30
2018-12-06T21:19:18.685Z,6.57
2018-12-06T21:21:46.897Z,6.20
2018-12-06T21:24:14.969Z,6.20
2018-12-06T21:26:43.185Z,6.23
2018-12-06T21:29:11.289Z,6.77
2018-12-06T21:31:39.427Z,5.93
2018-12-06T21:34:07.590Z,6.53
2018-12-06T21:36:35.693Z,6.13
2018-12-06T21:39:05.710Z,6.47
2018-12-06T21:41:34.187Z,5.80
2018-12-06T21:44:02.401Z,6.17
2018-12-06T21:46:31.440Z,6.47
2018-12-06T21:48:59.768Z,6.23
2018-12-06T21:51:27.888Z,5.80
2018-12-06T21:53:56.089Z,6.43
2018-12-06T21:56:24.320Z,6.20
2018-12-06T21:58:52.462Z,6.27
2018-12-06T22:01:21.573Z,7.00
2018-12-06T22:03:50.205Z,6.17
2018-12-06T22:06:18.390Z,7.40
2018-12-06T22:08:46.461Z,7.07
2018-12-06T22:11:14.697Z,6.60
2018-12-06T22:13:42.777Z,6.77
2018-12-06T22:16:10.909Z,6.30
2018-12-06T22:18:39.356Z,5.97
2018-12-06T22:21:07.450Z,6.83
2018-12-06T22:23:35.717Z,5.60
2018-12-06T22:26:03.957Z,6.37
2018-12-06T22:28:34.188Z,6.90
2018-12-06T22:31:02.341Z,6.80
2018-12-06T22:33:30.559Z,6.40
2018-12-06T22:35:58.701Z,7.70
2018-12-06T22:38:33.931Z,6.53
2018-12-06T22:40:57.166Z,6.03
2018-12-06T22:43:25.313Z,6.40
2018-12-06T22:45:57.919Z,5.27
2018-12-06T22:48:26.064Z,6.30
2018-12-06T22:50:54.242Z,6.30
2018-12-06T22:53:22.505Z,5.50
2018-12-06T22:55:50.771Z,6.00
2018-12-06T22:58:19.013Z,6.70
2018-12-06T23:00:53.522Z,5.93
2018-12-06T23:03:22.949Z,5.00
2018-12-06T23:05:52.405Z,4.93
2018-12-06T23:08:20.734Z,4.40
2018-12-06T23:10:48.943Z,4.97
2018-12-06T23:13:17.148Z,4.10
2018-12-06T23:15:45.448Z,4.47
2018-12-06T23:18:13.765Z,3.87
2018-12-06T23:20:41.909Z,4.27
2018-12-06T23:23:10.156Z,4.80
2018-12-06T23:25:38.389Z,4.00
2018-12-06T23:28:06.592Z,3.43
2018-12-06T23:30:34.813Z,4.10
2018-12-06T23:33:03.601Z,4.10
2018-12-06T23:35:31.741Z,4.20
2018-12-06T23:38:00.169Z,3.80
2018-12-06T23:40:28.308Z,3.90
2018-12-06T23:42:56.377Z,3.47
2018-12-06T23:45:24.906Z,3.90
2018-12-06T23:47:53.055Z,3.57
2018-12-06T23:50:21.353Z,3.30
2018-12-06T23:52:49.736Z,3.30
2018-12-06T23:55:17.873Z,3.60
2018-12-06T23:57:46.104Z,4.50
